首页
METAR-TAF:

METAR-TAF

机场 :

摩爾曼斯克, 俄罗斯

纬度: 68-58N, 经度: 033-03E, 海拔: 51米

当前天气观测

该预报发布于17分钟前的14:00 UTC
风速4节,风向南转西南,在东南西转西南之间变化
温度 20°C
湿度 40%
气压 996 hPa
能见度10公里或以上
散云层高于3000英尺, 积雨云.

METAR: ULMM 191400Z 20002MPS 140V250 9999 SCT030CB 20/06 Q0996 R13/090070 NOSIG RMK QFE740

时间: 17:17 (14:17 UTC)

预报

该预报发布于3小时和27分钟前的10:50 UTC
预报有效从19日的 12点(UTC)到 20日的 12点(UTC)
风速6节,风向,有时为16节阵风
能见度10公里或以上
多云层高于2000英尺
短暂存在
从 19日的 12点(UTC)到 19日的 21点(UTC)
风速6节,风向东南,有时为16节阵风
多云层高于2000英尺, 积雨云.
小阵雨
成为
从 19日的 21点(UTC)到 19日的 23点(UTC)
风速6节,风向
短暂存在
从 19日的 23点(UTC)到 20日的 09点(UTC)
风速6节,风向东北
能見度: 5000
多云层高于2000英尺, 积雨云.
小阵雨
短暂存在
从 20日的 09点(UTC)到 20日的 12点(UTC)
风速6节,风向东北,有时为16节阵风
能見度: 3100
多云层高于1100英尺
多云层高于2000英尺, 积雨云.
小阵雨

TAF: ULMM 191050Z 1912/2012 17003G08MPS 9999 BKN020 TEMPO 1912/1921 13003G08MPS -SHRA BKN020CB BECMG 1921/1923 09003MPS TEMPO 1923/2009 05003MPS 5000 -SHRA BKN020CB TEMPO 2009/2012 05003G08MPS 3100 -SHRA BKN011 BKN020CB

超过4000个机场的气象观测和天气预报(METAR&TAF报告)。

可查询的气象台以黄色和红色小点在地图上表示。

将鼠标移到小点上方,可查看气象台名称。

然后点击查看天气观测和预报。

如需切换地图:点击带黑十字的绿色按钮放大地图;点击带横线的绿色按钮缩小地图;或者点击绿色箭头查看邻近地区的地图。


METAR-TAF: